sensor_id;sensor_type;location;lat;lon;timestamp;pressure;altitude;pressure_sealevel;temperature;humidity
47054;BME280;32811;52.382;5.270;2023-04-20T00:02:18;102559.22;;;5.37;75.88
47054;BME280;32811;52.382;5.270;2023-04-20T00:04:47;102547.53;;;5.26;75.69
47054;BME280;32811;52.382;5.270;2023-04-20T00:07:13;102557.84;;;5.28;75.89
47054;BME280;32811;52.382;5.270;2023-04-20T00:09:42;102550.97;;;5.27;79.15
47054;BME280;32811;52.382;5.270;2023-04-20T00:12:08;102535.59;;;5.10;82.37
47054;BME280;32811;52.382;5.270;2023-04-20T00:14:35;102538.25;;;5.12;82.16
47054;BME280;32811;52.382;5.270;2023-04-20T00:17:02;102522.78;;;5.10;81.73
47054;BME280;32811;52.382;5.270;2023-04-20T00:19:29;102534.72;;;5.26;82.92
47054;BME280;32811;52.382;5.270;2023-04-20T00:21:59;102538.41;;;5.31;83.26
47054;BME280;32811;52.382;5.270;2023-04-20T00:24:25;102521.88;;;5.25;86.52
47054;BME280;32811;52.382;5.270;2023-04-20T00:26:52;102518.41;;;5.24;88.09
47054;BME280;32811;52.382;5.270;2023-04-20T00:29:20;102508.50;;;5.14;92.45
47054;BME280;32811;52.382;5.270;2023-04-20T00:31:47;102499.84;;;5.12;95.16
47054;BME280;32811;52.382;5.270;2023-04-20T00:34:14;102516.03;;;5.27;96.54
47054;BME280;32811;52.382;5.270;2023-04-20T00:36:41;102489.22;;;5.20;97.78
47054;BME280;32811;52.382;5.270;2023-04-20T00:39:08;102495.59;;;5.29;99.14
47054;BME280;32811;52.382;5.270;2023-04-20T00:41:35;102494.97;;;5.33;100.00
47054;BME280;32811;52.382;5.270;2023-04-20T00:44:02;102461.69;;;5.16;100.00
47054;BME280;32811;52.382;5.270;2023-04-20T00:46:29;102468.09;;;5.25;100.00
47054;BME280;32811;52.382;5.270;2023-04-20T00:48:55;102475.53;;;5.36;100.00
47054;BME280;32811;52.382;5.270;2023-04-20T00:51:22;102461.06;;;5.37;100.00
47054;BME280;32811;52.382;5.270;2023-04-20T00:53:49;102451.03;;;5.41;100.00
47054;BME280;32811;52.382;5.270;2023-04-20T00:56:17;102459.66;;;5.60;100.00
47054;BME280;32811;52.382;5.270;2023-04-20T00:58:45;102456.03;;;5.73;100.00
47054;BME280;32811;52.382;5.270;2023-04-20T01:01:12;102450.59;;;5.83;100.00
47054;BME280;32811;52.382;5.270;2023-04-20T01:03:44;102449.53;;;5.96;100.00
47054;BME280;32811;52.382;5.270;2023-04-20T01:06:14;102433.66;;;6.03;100.00
47054;BME280;32811;52.382;5.270;2023-04-20T01:08:48;102423.53;;;6.06;100.00
47054;BME280;32811;52.382;5.270;2023-04-20T01:11:14;102420.09;;;6.06;100.00
47054;BME280;32811;52.382;5.270;2023-04-20T01:13:42;102428.16;;;6.13;100.00
47054;BME280;32811;52.382;5.270;2023-04-20T01:16:09;102420.53;;;6.15;100.00
47054;BME280;32811;52.382;5.270;2023-04-20T01:18:45;102423.63;;;6.26;100.00
47054;BME280;32811;52.382;5.270;2023-04-20T01:21:14;102417.75;;;6.28;100.00
47054;BME280;32811;52.382;5.270;2023-04-20T01:23:42;102394.91;;;6.15;100.00
47054;BME280;32811;52.382;5.270;2023-04-20T01:26:10;102407.41;;;6.27;100.00
47054;BME280;32811;52.382;5.270;2023-04-20T01:28:37;102380.81;;;6.24;100.00
47054;BME280;32811;52.382;5.270;2023-04-20T01:31:05;102399.41;;;6.38;100.00
47054;BME280;32811;52.382;5.270;2023-04-20T01:33:32;102397.31;;;6.48;100.00
47054;BME280;32811;52.382;5.270;2023-04-20T01:35:59;102393.38;;;6.56;100.00
47054;BME280;32811;52.382;5.270;2023-04-20T01:38:26;102390.16;;;6.60;100.00
47054;BME280;32811;52.382;5.270;2023-04-20T01:40:53;102385.31;;;6.66;100.00
47054;BME280;32811;52.382;5.270;2023-04-20T01:43:21;102375.19;;;6.69;100.00
47054;BME280;32811;52.382;5.270;2023-04-20T01:45:48;102381.75;;;6.82;100.00
47054;BME280;32811;52.382;5.270;2023-04-20T01:48:14;102384.78;;;6.93;100.00
47054;BME280;32811;52.382;5.270;2023-04-20T01:50:41;102368.72;;;6.97;100.00
47054;BME280;32811;52.382;5.270;2023-04-20T01:53:08;102354.50;;;7.05;100.00
47054;BME280;32811;52.382;5.270;2023-04-20T01:55:35;102359.53;;;7.23;100.00
47054;BME280;32811;52.382;5.270;2023-04-20T01:58:01;102359.63;;;7.24;100.00
47054;BME280;32811;52.382;5.270;2023-04-20T02:00:28;102362.56;;;7.34;100.00
47054;BME280;32811;52.382;5.270;2023-04-20T02:02:54;102356.50;;;7.32;100.00
47054;BME280;32811;52.382;5.270;2023-04-20T02:05:21;102343.91;;;7.38;100.00
47054;BME280;32811;52.382;5.270;2023-04-20T02:07:48;102349.06;;;7.38;100.00
47054;BME280;32811;52.382;5.270;2023-04-20T02:10:14;102344.09;;;7.42;100.00
47054;BME280;32811;52.382;5.270;2023-04-20T02:12:41;102341.53;;;7.42;100.00
47054;BME280;32811;52.382;5.270;2023-04-20T02:15:08;102340.78;;;7.45;100.00
47054;BME280;32811;52.382;5.270;2023-04-20T02:17:34;102336.41;;;7.42;100.00
47054;BME280;32811;52.382;5.270;2023-04-20T02:20:07;102334.78;;;7.44;100.00
47054;BME280;32811;52.382;5.270;2023-04-20T02:22:36;102329.56;;;7.43;100.00
47054;BME280;32811;52.382;5.270;2023-04-20T02:25:04;102326.88;;;7.40;100.00
47054;BME280;32811;52.382;5.270;2023-04-20T02:27:31;102318.91;;;7.34;100.00
47054;BME280;32811;52.382;5.270;2023-04-20T02:29:58;102318.66;;;7.27;100.00
47054;BME280;32811;52.382;5.270;2023-04-20T02:32:25;102309.28;;;7.28;100.00
47054;BME280;32811;52.382;5.270;2023-04-20T02:34:52;102313.59;;;7.29;100.00
47054;BME280;32811;52.382;5.270;2023-04-20T02:37:19;102308.56;;;7.32;100.00
47054;BME280;32811;52.382;5.270;2023-04-20T02:39:45;102300.13;;;7.35;100.00
47054;BME280;32811;52.382;5.270;2023-04-20T02:42:12;102305.66;;;7.44;100.00
47054;BME280;32811;52.382;5.270;2023-04-20T02:44:39;102295.75;;;7.53;100.00
47054;BME280;32811;52.382;5.270;2023-04-20T02:47:05;102286.03;;;7.46;100.00
47054;BME280;32811;52.382;5.270;2023-04-20T02:49:32;102288.66;;;7.47;100.00
47054;BME280;32811;52.382;5.270;2023-04-20T02:51:58;102285.28;;;7.48;100.00
47054;BME280;32811;52.382;5.270;2023-04-20T02:54:25;102277.94;;;7.58;100.00
47054;BME280;32811;52.382;5.270;2023-04-20T02:56:52;102273.72;;;7.60;100.00
47054;BME280;32811;52.382;5.270;2023-04-20T02:59:19;102272.28;;;7.66;100.00
47054;BME280;32811;52.382;5.270;2023-04-20T03:01:45;102273.50;;;7.76;100.00
47054;BME280;32811;52.382;5.270;2023-04-20T03:04:12;102265.81;;;7.76;100.00
47054;BME280;32811;52.382;5.270;2023-04-20T03:06:39;102257.91;;;7.72;100.00
47054;BME280;32811;52.382;5.270;2023-04-20T03:09:06;102259.28;;;7.84;100.00
47054;BME280;32811;52.382;5.270;2023-04-20T03:11:33;102254.19;;;7.86;100.00
47054;BME280;32811;52.382;5.270;2023-04-20T03:13:59;102250.69;;;7.84;100.00
47054;BME280;32811;52.382;5.270;2023-04-20T03:16:26;102253.47;;;7.90;100.00
47054;BME280;32811;52.382;5.270;2023-04-20T03:18:52;102249.09;;;7.87;100.00
47054;BME280;32811;52.382;5.270;2023-04-20T03:21:19;102243.09;;;7.87;100.00
47054;BME280;32811;52.382;5.270;2023-04-20T03:23:46;102244.81;;;7.88;100.00
47054;BME280;32811;52.382;5.270;2023-04-20T03:26:13;102242.31;;;7.89;100.00
47054;BME280;32811;52.382;5.270;2023-04-20T03:28:40;102249.22;;;7.90;100.00
47054;BME280;32811;52.382;5.270;2023-04-20T03:31:07;102235.44;;;7.88;100.00
47054;BME280;32811;52.382;5.270;2023-04-20T03:33:34;102238.03;;;7.90;100.00
47054;BME280;32811;52.382;5.270;2023-04-20T03:36:00;102230.31;;;7.88;100.00
47054;BME280;32811;52.382;5.270;2023-04-20T03:38:27;102236.41;;;7.92;100.00
47054;BME280;32811;52.382;5.270;2023-04-20T03:40:53;102240.63;;;7.90;100.00
47054;BME280;32811;52.382;5.270;2023-04-20T03:43:20;102226.03;;;7.89;100.00
47054;BME280;32811;52.382;5.270;2023-04-20T03:45:46;102223.53;;;7.90;100.00
47054;BME280;32811;52.382;5.270;2023-04-20T03:48:14;102230.31;;;7.88;100.00
47054;BME280;32811;52.382;5.270;2023-04-20T03:50:41;102221.47;;;7.82;100.00
47054;BME280;32811;52.382;5.270;2023-04-20T03:53:07;102226.66;;;7.83;100.00
47054;BME280;32811;52.382;5.270;2023-04-20T03:55:34;102227.03;;;7.93;100.00
47054;BME280;32811;52.382;5.270;2023-04-20T03:58:01;102227.66;;;7.87;100.00
47054;BME280;32811;52.382;5.270;2023-04-20T04:00:27;102226.03;;;7.89;100.00
47054;BME280;32811;52.382;5.270;2023-04-20T04:02:54;102222.75;;;7.93;100.00
47054;BME280;32811;52.382;5.270;2023-04-20T04:05:21;102213.09;;;7.87;100.00
47054;BME280;32811;52.382;5.270;2023-04-20T04:07:48;102208.03;;;7.89;100.00
47054;BME280;32811;52.382;5.270;2023-04-20T04:10:14;102194.25;;;7.87;100.00
47054;BME280;32811;52.382;5.270;2023-04-20T04:12:43;102191.59;;;7.85;100.00
47054;BME280;32811;52.382;5.270;2023-04-20T04:15:10;102200.16;;;7.84;100.00
47054;BME280;32811;52.382;5.270;2023-04-20T04:17:37;102196.03;;;7.89;100.00
47054;BME280;32811;52.382;5.270;2023-04-20T04:20:05;102200.41;;;7.92;100.00
47054;BME280;32811;52.382;5.270;2023-04-20T04:22:34;102192.13;;;7.99;100.00
47054;BME280;32811;52.382;5.270;2023-04-20T04:25:01;102172.91;;;7.89;100.00
47054;BME280;32811;52.382;5.270;2023-04-20T04:27:28;102171.16;;;7.88;100.00
47054;BME280;32811;52.382;5.270;2023-04-20T04:30:00;102191.22;;;7.97;100.00
47054;BME280;32811;52.382;5.270;2023-04-20T04:32:29;102175.81;;;7.99;100.00
47054;BME280;32811;52.382;5.270;2023-04-20T04:34:55;102184.34;;;7.98;100.00
47054;BME280;32811;52.382;5.270;2023-04-20T04:37:22;102176.50;;;7.95;100.00
47054;BME280;32811;52.382;5.270;2023-04-20T04:39:49;102174.84;;;7.95;100.00
47054;BME280;32811;52.382;5.270;2023-04-20T04:42:16;102164.66;;;7.98;100.00
47054;BME280;32811;52.382;5.270;2023-04-20T04:44:43;102163.03;;;8.00;100.00
47054;BME280;32811;52.382;5.270;2023-04-20T04:47:10;102167.69;;;7.88;100.00
47054;BME280;32811;52.382;5.270;2023-04-20T04:49:39;102175.47;;;7.89;100.00
47054;BME280;32811;52.382;5.270;2023-04-20T04:52:07;102172.09;;;7.90;100.00
47054;BME280;32811;52.382;5.270;2023-04-20T04:54:34;102178.81;;;7.87;100.00
47054;BME280;32811;52.382;5.270;2023-04-20T04:57:01;102168.63;;;7.90;100.00
47054;BME280;32811;52.382;5.270;2023-04-20T04:59:27;102166.06;;;7.90;100.00
47054;BME280;32811;52.382;5.270;2023-04-20T05:01:54;102167.69;;;7.88;100.00
47054;BME280;32811;52.382;5.270;2023-04-20T05:04:21;102166.06;;;7.90;100.00
47054;BME280;32811;52.382;5.270;2023-04-20T05:06:48;102165.88;;;7.84;100.00
47054;BME280;32811;52.382;5.270;2023-04-20T05:09:14;102153.47;;;7.74;100.00
47054;BME280;32811;52.382;5.270;2023-04-20T05:11:41;102156.97;;;7.76;100.00
47054;BME280;32811;52.382;5.270;2023-04-20T05:14:08;102146.47;;;7.69;100.00
47054;BME280;32811;52.382;5.270;2023-04-20T05:16:35;102158.34;;;7.66;100.00
47054;BME280;32811;52.382;5.270;2023-04-20T05:19:01;102152.53;;;7.72;100.00
47054;BME280;32811;52.382;5.270;2023-04-20T05:21:29;102143.03;;;7.69;100.00
47054;BME280;32811;52.382;5.270;2023-04-20T05:23:56;102141.16;;;7.65;100.00
47054;BME280;32811;52.382;5.270;2023-04-20T05:26:22;102144.66;;;7.67;100.00
47054;BME280;32811;52.382;5.270;2023-04-20T05:28:49;102164.03;;;7.59;100.00
47054;BME280;32811;52.382;5.270;2023-04-20T05:31:16;102166.22;;;7.48;100.00
47054;BME280;32811;52.382;5.270;2023-04-20T05:33:43;102166.94;;;7.44;100.00
47054;BME280;32811;52.382;5.270;2023-04-20T05:36:10;102163.41;;;7.42;100.00
47054;BME280;32811;52.382;5.270;2023-04-20T05:38:36;102168.72;;;7.46;100.00
47054;BME280;32811;52.382;5.270;2023-04-20T05:41:03;102161.78;;;7.44;100.00
47054;BME280;32811;52.382;5.270;2023-04-20T05:43:30;102165.06;;;7.40;100.00
47054;BME280;32811;52.382;5.270;2023-04-20T05:45:56;102155.38;;;7.33;100.00
47054;BME280;32811;52.382;5.270;2023-04-20T05:48:24;102171.00;;;7.39;100.00
47054;BME280;32811;52.382;5.270;2023-04-20T05:50:55;102181.09;;;7.34;100.00
47054;BME280;32811;52.382;5.270;2023-04-20T05:53:22;102182.19;;;7.41;100.00
47054;BME280;32811;52.382;5.270;2023-04-20T05:55:48;102174.31;;;7.36;100.00
47054;BME280;32811;52.382;5.270;2023-04-20T05:58:15;102173.09;;;7.26;100.00
47054;BME280;32811;52.382;5.270;2023-04-20T06:00:42;102185.19;;;7.29;100.00
47054;BME280;32811;52.382;5.270;2023-04-20T06:03:09;102185.69;;;7.20;100.00
47054;BME280;32811;52.382;5.270;2023-04-20T06:05:36;102177.88;;;7.17;100.00
47054;BME280;32811;52.382;5.270;2023-04-20T06:08:03;102177.97;;;7.20;100.00
47054;BME280;32811;52.382;5.270;2023-04-20T06:10:30;102170.66;;;7.09;100.00
47054;BME280;32811;52.382;5.270;2023-04-20T06:12:59;102174.97;;;7.10;100.00
47054;BME280;32811;52.382;5.270;2023-04-20T06:15:26;102172.38;;;7.08;100.00
47054;BME280;32811;52.382;5.270;2023-04-20T06:17:53;102163.47;;;7.00;100.00
47054;BME280;32811;52.382;5.270;2023-04-20T06:20:20;102174.34;;;6.94;100.00
47054;BME280;32811;52.382;5.270;2023-04-20T06:22:47;102158.16;;;6.95;100.00
47054;BME280;32811;52.382;5.270;2023-04-20T06:25:14;102157.28;;;6.95;100.00
47054;BME280;32811;52.382;5.270;2023-04-20T06:27:41;102157.28;;;6.95;100.00
47054;BME280;32811;52.382;5.270;2023-04-20T06:30:08;102148.00;;;6.98;100.00
47054;BME280;32811;52.382;5.270;2023-04-20T06:32:35;102136.75;;;6.95;100.00
47054;BME280;32811;52.382;5.270;2023-04-20T06:35:04;102150.72;;;7.01;100.00
47054;BME280;32811;52.382;5.270;2023-04-20T06:37:31;102153.91;;;6.96;100.00
47054;BME280;32811;52.382;5.270;2023-04-20T06:39:58;102150.88;;;6.85;100.00
47054;BME280;32811;52.382;5.270;2023-04-20T06:42:25;102157.59;;;6.81;100.00
47054;BME280;32811;52.382;5.270;2023-04-20T06:44:52;102162.34;;;6.93;100.00
47054;BME280;32811;52.382;5.270;2023-04-20T06:47:19;102156.97;;;6.87;100.00
47054;BME280;32811;52.382;5.270;2023-04-20T06:49:46;102159.72;;;6.92;100.00
47054;BME280;32811;52.382;5.270;2023-04-20T06:52:12;102141.75;;;6.92;100.00
47054;BME280;32811;52.382;5.270;2023-04-20T06:54:39;102151.50;;;7.00;100.00
47054;BME280;32811;52.382;5.270;2023-04-20T06:57:05;102151.66;;;7.03;100.00
47054;BME280;32811;52.382;5.270;2023-04-20T06:59:32;102150.75;;;7.03;100.00
47054;BME280;32811;52.382;5.270;2023-04-20T07:01:58;102162.59;;;6.99;100.00
47054;BME280;32811;52.382;5.270;2023-04-20T07:04:25;102155.41;;;6.91;100.00
47054;BME280;32811;52.382;5.270;2023-04-20T07:06:52;102167.22;;;6.87;100.00
47054;BME280;32811;52.382;5.270;2023-04-20T07:09:19;102156.78;;;6.82;100.00
47054;BME280;32811;52.382;5.270;2023-04-20T07:11:48;102145.66;;;6.61;100.00
47054;BME280;32811;52.382;5.270;2023-04-20T07:14:15;102171.06;;;6.56;100.00
47054;BME280;32811;52.382;5.270;2023-04-20T07:16:41;102164.69;;;6.47;100.00
47054;BME280;32811;52.382;5.270;2023-04-20T07:19:08;102170.53;;;6.23;100.00
47054;BME280;32811;52.382;5.270;2023-04-20T07:21:35;102167.16;;;6.24;100.00
47054;BME280;32811;52.382;5.270;2023-04-20T07:24:02;102169.19;;;6.12;100.00
47054;BME280;32811;52.382;5.270;2023-04-20T07:26:28;102176.19;;;5.96;100.00
47054;BME280;32811;52.382;5.270;2023-04-20T07:28:55;102182.63;;;5.88;100.00
47054;BME280;32811;52.382;5.270;2023-04-20T07:31:22;102181.91;;;5.73;100.00
47054;BME280;32811;52.382;5.270;2023-04-20T07:33:48;102174.59;;;5.80;100.00
47054;BME280;32811;52.382;5.270;2023-04-20T07:36:15;102154.91;;;5.79;100.00
47054;BME280;32811;52.382;5.270;2023-04-20T07:38:42;102159.94;;;5.78;100.00
47054;BME280;32811;52.382;5.270;2023-04-20T07:41:09;102169.84;;;5.70;100.00
47054;BME280;32811;52.382;5.270;2023-04-20T07:43:36;102169.13;;;5.73;100.00
47054;BME280;32811;52.382;5.270;2023-04-20T07:46:04;102157.72;;;5.66;100.00
47054;BME280;32811;52.382;5.270;2023-04-20T07:48:32;102174.16;;;5.71;100.00
47054;BME280;32811;52.382;5.270;2023-04-20T07:51:00;102161.09;;;5.65;100.00
47054;BME280;32811;52.382;5.270;2023-04-20T07:53:30;102156.91;;;5.67;100.00
47054;BME280;32811;52.382;5.270;2023-04-20T07:55:56;102158.31;;;5.60;100.00
47054;BME280;32811;52.382;5.270;2023-04-20T07:58:23;102168.78;;;5.65;100.00
47054;BME280;32811;52.382;5.270;2023-04-20T08:00:50;102159.25;;;5.62;100.00
47054;BME280;32811;52.382;5.270;2023-04-20T08:03:17;102159.97;;;5.60;100.00
47054;BME280;32811;52.382;5.270;2023-04-20T08:05:44;102169.03;;;5.71;100.00
47054;BME280;32811;52.382;5.270;2023-04-20T08:08:11;102169.97;;;5.73;100.00
47054;BME280;32811;52.382;5.270;2023-04-20T08:10:38;102172.84;;;5.79;100.00
47054;BME280;32811;52.382;5.270;2023-04-20T08:13:05;102159.53;;;5.69;100.00
47054;BME280;32811;52.382;5.270;2023-04-20T08:15:31;102148.81;;;5.77;100.00
47054;BME280;32811;52.382;5.270;2023-04-20T08:17:58;102135.72;;;5.71;100.00
47054;BME280;32811;52.382;5.270;2023-04-20T08:20:25;102139.84;;;5.68;100.00
47054;BME280;32811;52.382;5.270;2023-04-20T08:22:51;102148.34;;;5.67;100.00
47054;BME280;32811;52.382;5.270;2023-04-20T08:25:18;102144.38;;;5.73;100.00
47054;BME280;32811;52.382;5.270;2023-04-20T08:27:45;102137.84;;;5.80;100.00
47054;BME280;32811;52.382;5.270;2023-04-20T08:30:11;102127.31;;;5.93;100.00
47054;BME280;32811;52.382;5.270;2023-04-20T08:32:38;102122.16;;;6.11;100.00
47054;BME280;32811;52.382;5.270;2023-04-20T08:35:06;102136.13;;;6.18;100.00
47054;BME280;32811;52.382;5.270;2023-04-20T08:37:35;102141.44;;;6.22;100.00
47054;BME280;32811;52.382;5.270;2023-04-20T08:40:03;102147.88;;;6.13;100.00
47054;BME280;32811;52.382;5.270;2023-04-20T08:42:30;102139.78;;;6.03;100.00
47054;BME280;32811;52.382;5.270;2023-04-20T08:44:57;102139.50;;;5.97;100.00
47054;BME280;32811;52.382;5.270;2023-04-20T08:47:25;102138.75;;;6.00;100.00
47054;BME280;32811;52.382;5.270;2023-04-20T08:49:53;102150.38;;;5.93;100.00
47054;BME280;32811;52.382;5.270;2023-04-20T08:52:20;102132.44;;;5.93;100.00
47054;BME280;32811;52.382;5.270;2023-04-20T08:54:47;102144.06;;;5.85;100.00
47054;BME280;32811;52.382;5.270;2023-04-20T08:57:22;102130.63;;;5.91;100.00
47054;BME280;32811;52.382;5.270;2023-04-20T08:59:49;102124.31;;;6.02;100.00
47054;BME280;32811;52.382;5.270;2023-04-20T09:02:16;102123.06;;;6.12;100.00
47054;BME280;32811;52.382;5.270;2023-04-20T09:04:43;102113.69;;;6.33;100.00
47054;BME280;32811;52.382;5.270;2023-04-20T09:07:19;102117.28;;;6.58;100.00
47054;BME280;32811;52.382;5.270;2023-04-20T09:09:58;102126.09;;;6.64;100.00
47054;BME280;32811;52.382;5.270;2023-04-20T09:12:25;102122.97;;;6.51;100.00
47054;BME280;32811;52.382;5.270;2023-04-20T09:14:52;102120.00;;;6.61;100.00
47054;BME280;32811;52.382;5.270;2023-04-20T09:17:35;102119.97;;;6.82;100.00
47054;BME280;32811;52.382;5.270;2023-04-20T09:20:02;102128.00;;;6.69;100.00
47054;BME280;32811;52.382;5.270;2023-04-20T09:22:31;102112.34;;;6.62;100.00
47054;BME280;32811;52.382;5.270;2023-04-20T09:24:59;102113.47;;;6.69;100.00
47054;BME280;32811;52.382;5.270;2023-04-20T09:27:26;102118.09;;;6.78;100.00
47054;BME280;32811;52.382;5.270;2023-04-20T09:29:58;102130.13;;;6.79;100.00
47054;BME280;32811;52.382;5.270;2023-04-20T09:32:27;102131.81;;;6.99;100.00
47054;BME280;32811;52.382;5.270;2023-04-20T09:34:55;102121.19;;;7.13;100.00
47054;BME280;32811;52.382;5.270;2023-04-20T09:37:22;102124.84;;;6.97;100.00
47054;BME280;32811;52.382;5.270;2023-04-20T09:39:49;102113.72;;;6.75;100.00
47054;BME280;32811;52.382;5.270;2023-04-20T09:42:16;102111.84;;;6.71;100.00
47054;BME280;32811;52.382;5.270;2023-04-20T09:44:43;102116.09;;;6.71;100.00
47054;BME280;32811;52.382;5.270;2023-04-20T09:47:15;102125.56;;;6.93;100.00
47054;BME280;32811;52.382;5.270;2023-04-20T09:49:45;102126.59;;;6.98;100.00
47054;BME280;32811;52.382;5.270;2023-04-20T09:52:16;102122.13;;;6.92;100.00
47054;BME280;32811;52.382;5.270;2023-04-20T09:54:44;102116.22;;;6.95;100.00
47054;BME280;32811;52.382;5.270;2023-04-20T09:57:12;102118.16;;;6.79;100.00
47054;BME280;32811;52.382;5.270;2023-04-20T09:59:42;102114.00;;;6.83;100.00
47054;BME280;32811;52.382;5.270;2023-04-20T10:02:10;102113.31;;;6.87;100.00
47054;BME280;32811;52.382;5.270;2023-04-20T10:04:57;102097.22;;;7.35;100.00
47054;BME280;32811;52.382;5.270;2023-04-20T10:07:25;102091.97;;;8.02;100.00
47054;BME280;32811;52.382;5.270;2023-04-20T10:12:56;102079.09;;;8.02;100.00
47054;BME280;32811;52.382;5.270;2023-04-20T10:15:35;102074.94;;;8.06;100.00
47054;BME280;32811;52.382;5.270;2023-04-20T10:18:13;102075.66;;;8.27;100.00
47054;BME280;32811;52.382;5.270;2023-04-20T10:20:43;102067.41;;;8.10;100.00
47054;BME280;32811;52.382;5.270;2023-04-20T10:23:09;102075.50;;;7.97;100.00
47054;BME280;32811;52.382;5.270;2023-04-20T10:25:36;102076.84;;;7.87;100.00
47054;BME280;32811;52.382;5.270;2023-04-20T10:28:04;102073.31;;;7.84;100.00
47054;BME280;32811;52.382;5.270;2023-04-20T10:30:35;102079.88;;;7.76;100.00
47054;BME280;32811;52.382;5.270;2023-04-20T10:33:03;102076.38;;;8.23;100.00
47054;BME280;32811;52.382;5.270;2023-04-20T10:36:00;102075.56;;;8.76;100.00
47054;BME280;32811;52.382;5.270;2023-04-20T10:38:34;102062.72;;;8.77;100.00
47054;BME280;32811;52.382;5.270;2023-04-20T10:41:08;102059.25;;;9.04;100.00
47054;BME280;32811;52.382;5.270;2023-04-20T10:43:35;102056.50;;;9.56;100.00
47054;BME280;32811;52.382;5.270;2023-04-20T10:46:18;102049.75;;;9.60;100.00
47054;BME280;32811;52.382;5.270;2023-04-20T10:48:57;102043.75;;;9.61;100.00
47054;BME280;32811;52.382;5.270;2023-04-20T10:51:24;102059.34;;;9.35;100.00
47054;BME280;32811;52.382;5.270;2023-04-20T10:56:24;102038.09;;;9.74;100.00
47054;BME280;32811;52.382;5.270;2023-04-20T10:58:52;102032.94;;;9.44;100.00
47054;BME280;32811;52.382;5.270;2023-04-20T11:01:19;102031.97;;;9.10;100.00
47054;BME280;32811;52.382;5.270;2023-04-20T11:03:49;102035.75;;;9.22;100.00
47054;BME280;32811;52.382;5.270;2023-04-20T11:06:17;102036.72;;;9.25;100.00
47054;BME280;32811;52.382;5.270;2023-04-20T11:08:44;102034.66;;;9.42;100.00
47054;BME280;32811;52.382;5.270;2023-04-20T11:11:20;102036.41;;;9.14;100.00
47054;BME280;32811;52.382;5.270;2023-04-20T11:13:47;102024.50;;;9.18;100.00
47054;BME280;32811;52.382;5.270;2023-04-20T11:16:15;102035.84;;;9.25;100.00
47054;BME280;32811;52.382;5.270;2023-04-20T11:19:00;102033.53;;;9.34;100.00
47054;BME280;32811;52.382;5.270;2023-04-20T11:21:39;102036.25;;;9.39;100.00
47054;BME280;32811;52.382;5.270;2023-04-20T11:24:21;102003.78;;;9.45;100.00
47054;BME280;32811;52.382;5.270;2023-04-20T11:26:48;102015.75;;;9.75;100.00
47054;BME280;32811;52.382;5.270;2023-04-20T11:31:59;101995.00;;;10.37;100.00
47054;BME280;32811;52.382;5.270;2023-04-20T11:34:27;101993.44;;;10.82;100.00
47054;BME280;32811;52.382;5.270;2023-04-20T11:36:54;101998.72;;;10.48;100.00
47054;BME280;32811;52.382;5.270;2023-04-20T11:39:26;102005.69;;;10.52;100.00
47054;BME280;32811;52.382;5.270;2023-04-20T11:41:54;101990.97;;;10.48;100.00
47054;BME280;32811;52.382;5.270;2023-04-20T11:44:23;101994.31;;;10.44;100.00
47054;BME280;32811;52.382;5.270;2023-04-20T11:46:52;101983.81;;;10.38;100.00
47054;BME280;32811;52.382;5.270;2023-04-20T11:49:20;101981.84;;;10.64;100.00
47054;BME280;32811;52.382;5.270;2023-04-20T11:51:47;101980.75;;;10.18;100.00
47054;BME280;32811;52.382;5.270;2023-04-20T11:54:13;101978.88;;;10.12;100.00
47054;BME280;32811;52.382;5.270;2023-04-20T11:56:41;101977.53;;;9.93;100.00
47054;BME280;32811;52.382;5.270;2023-04-20T11:59:08;101982.47;;;9.83;100.00
47054;BME280;32811;52.382;5.270;2023-04-20T12:01:34;101988.78;;;9.62;100.00
47054;BME280;32811;52.382;5.270;2023-04-20T12:04:02;101986.91;;;9.56;100.00
47054;BME280;32811;52.382;5.270;2023-04-20T12:06:29;101976.44;;;9.50;100.00
47054;BME280;32811;52.382;5.270;2023-04-20T12:08:59;101987.91;;;9.62;100.00
47054;BME280;32811;52.382;5.270;2023-04-20T12:11:26;101981.22;;;9.68;100.00
47054;BME280;32811;52.382;5.270;2023-04-20T12:13:53;101969.06;;;9.97;100.00
47054;BME280;32811;52.382;5.270;2023-04-20T12:16:22;101978.31;;;10.59;100.00
47054;BME280;32811;52.382;5.270;2023-04-20T12:18:49;101959.56;;;10.69;100.00
47054;BME280;32811;52.382;5.270;2023-04-20T12:21:16;101969.78;;;10.63;100.00
47054;BME280;32811;52.382;5.270;2023-04-20T12:23:42;101953.28;;;10.56;100.00
47054;BME280;32811;52.382;5.270;2023-04-20T12:26:09;101959.81;;;10.80;100.00
47054;BME280;32811;52.382;5.270;2023-04-20T12:28:36;101968.13;;;10.67;100.00
47054;BME280;32811;52.382;5.270;2023-04-20T12:31:03;101959.38;;;10.58;100.00
47054;BME280;32811;52.382;5.270;2023-04-20T12:33:29;101954.53;;;10.74;100.00
47054;BME280;32811;52.382;5.270;2023-04-20T12:35:56;101961.28;;;10.29;100.00
47054;BME280;32811;52.382;5.270;2023-04-20T12:38:23;101961.41;;;10.35;100.00
47054;BME280;32811;52.382;5.270;2023-04-20T12:40:49;101964.50;;;10.22;100.00
47054;BME280;32811;52.382;5.270;2023-04-20T12:43:16;101963.63;;;10.22;100.00
47054;BME280;32811;52.382;5.270;2023-04-20T12:45:42;101961.13;;;10.25;100.00
47054;BME280;32811;52.382;5.270;2023-04-20T12:48:09;101953.16;;;10.14;100.00
47054;BME280;32811;52.382;5.270;2023-04-20T12:50:35;101961.00;;;10.20;100.00
47054;BME280;32811;52.382;5.270;2023-04-20T12:53:02;101955.72;;;10.15;100.00
47054;BME280;32811;52.382;5.270;2023-04-20T12:55:29;101969.16;;;10.35;100.00
47054;BME280;32811;52.382;5.270;2023-04-20T12:57:55;101954.72;;;10.09;100.00
47054;BME280;32811;52.382;5.270;2023-04-20T13:00:22;101954.81;;;10.12;100.00
47054;BME280;32811;52.382;5.270;2023-04-20T13:02:49;101962.22;;;10.33;100.00